Time;durP1;ratioP1;P1;durP2;ratioP2;P2;SDS_P1;SDS_P2;PMS_P1;PMS_P2;Temp;Humidity;BMP_temperature;BMP_pressure;BME280_temperature;BME280_humidity;BME280_pressure;Samples;Min_cycle;Max_cycle;Signal;HPM_P1;HPM_P2
2022/03/25 00:00:31;;;;;;;78.07;44.58;;;4.80;99.90;;;;;;5012877;28;20041;-74
2022/03/25 00:02:57;;;;;;;90.82;45.30;;;4.80;99.90;;;;;;5012861;28;20697;-78
2022/03/25 00:05:23;;;;;;;85.28;44.97;;;4.70;99.90;;;;;;5012753;28;20120;-70
2022/03/25 00:07:49;;;;;;;86.05;45.85;;;5.20;99.90;;;;;;5012946;28;20034;-75
2022/03/25 00:10:15;;;;;;;83.82;44.30;;;4.70;99.90;;;;;;5013135;28;20054;-72
2022/03/25 00:12:41;;;;;;;83.68;44.92;;;4.60;99.90;;;;;;4995515;28;20049;-72
2022/03/25 00:15:07;;;;;;;84.47;45.47;;;4.60;99.90;;;;;;4994925;28;20482;-72
2022/03/25 00:17:33;;;;;;;86.05;46.13;;;4.50;99.90;;;;;;4995508;28;20050;-74
2022/03/25 00:19:59;;;;;;;291.05;53.80;;;4.50;99.90;;;;;;4995275;28;20038;-73
2022/03/25 00:22:25;;;;;;;366.02;52.95;;;4.40;99.90;;;;;;5012492;28;20448;-74
2022/03/25 00:24:50;;;;;;;283.50;52.03;;;4.40;99.90;;;;;;4995252;28;20080;-78
2022/03/25 00:27:17;;;;;;;343.92;49.72;;;4.30;99.90;;;;;;4995738;28;20050;-73
2022/03/25 00:29:43;;;;;;;323.30;48.78;;;4.20;99.90;;;;;;5012357;28;20038;-73
2022/03/25 00:32:09;;;;;;;396.25;51.97;;;4.10;99.90;;;;;;5012686;28;20057;-72
2022/03/25 00:34:35;;;;;;;279.73;47.30;;;3.90;99.90;;;;;;4994984;28;20053;-73
2022/03/25 00:37:00;;;;;;;239.27;44.03;;;3.80;99.90;;;;;;4995372;28;20054;-73
2022/03/25 00:39:26;;;;;;;221.23;44.22;;;3.70;99.90;;;;;;4995332;28;20486;-73
2022/03/25 00:41:52;;;;;;;178.02;40.95;;;3.50;99.90;;;;;;4995528;28;20482;-74
2022/03/25 00:44:20;;;;;;;254.15;41.63;;;3.50;99.90;;;;;;5012629;28;20436;-74
2022/03/25 00:46:46;;;;;;;213.18;40.08;;;3.50;99.90;;;;;;4994919;28;20472;-76
2022/03/25 00:49:11;;;;;;;190.50;41.17;;;3.50;99.90;;;;;;5012629;28;20121;-73
2022/03/25 00:51:37;;;;;;;271.05;44.85;;;3.50;99.90;;;;;;5013049;28;20441;-72
2022/03/25 00:54:03;;;;;;;261.42;41.97;;;4.00;99.90;;;;;;5022588;28;20032;-73
2022/03/25 00:56:29;;;;;;;321.25;45.40;;;3.40;99.90;;;;;;5027623;28;20037;-74
2022/03/25 00:58:55;;;;;;;271.13;45.75;;;3.40;99.90;;;;;;5026453;28;20101;-73
2022/03/25 01:01:20;;;;;;;314.85;46.55;;;3.50;99.90;;;;;;5025551;28;20050;-73
2022/03/25 01:03:46;;;;;;;198.27;43.50;;;3.50;99.90;;;;;;4986728;28;20197;-72
2022/03/25 01:06:12;;;;;;;180.13;43.30;;;3.50;99.90;;;;;;4994997;28;20054;-72
2022/03/25 01:08:38;;;;;;;227.95;45.60;;;3.50;99.90;;;;;;5012637;28;20135;-73
2022/03/25 01:11:04;;;;;;;253.48;47.53;;;3.50;99.90;;;;;;4978749;28;20069;-73
2022/03/25 01:13:33;;;;;;;159.55;42.17;;;3.90;99.90;;;;;;4995248;28;20406;-73
2022/03/25 01:16:06;;;;;;;145.88;39.17;;;3.40;99.90;;;;;;5012685;28;20061;-73
2022/03/25 01:18:32;;;;;;;154.48;41.67;;;3.40;99.90;;;;;;5012013;28;20104;-72
2022/03/25 01:20:58;;;;;;;114.32;39.42;;;3.40;99.90;;;;;;5012122;28;20502;-70
2022/03/25 01:23:25;;;;;;;197.32;42.78;;;3.40;99.90;;;;;;4994422;28;20177;-73
2022/03/25 01:25:51;;;;;;;125.93;41.80;;;3.30;99.90;;;;;;5012163;28;20053;-73
2022/03/25 01:28:17;;;;;;;145.07;41.65;;;3.40;99.90;;;;;;5012287;28;20169;-72
2022/03/25 01:30:43;;;;;;;123.78;41.83;;;3.40;99.90;;;;;;5012367;28;20046;-73
2022/03/25 01:33:09;;;;;;;208.50;46.65;;;3.40;99.90;;;;;;5011926;28;20577;-74
2022/03/25 01:35:35;;;;;;;154.13;44.10;;;3.50;99.90;;;;;;5014181;28;20131;-74
2022/03/25 01:38:01;;;;;;;226.35;45.97;;;3.50;99.90;;;;;;4998261;28;20057;-75
2022/03/25 01:40:27;;;;;;;210.85;45.97;;;3.40;99.90;;;;;;5015802;28;20129;-74
2022/03/25 01:42:53;;;;;;;234.48;46.70;;;3.70;99.90;;;;;;5015651;28;20070;-73
2022/03/25 01:45:32;;;;;;;207.95;46.22;;;3.40;99.90;;;;;;5015621;28;20049;-71
2022/03/25 01:47:58;;;;;;;205.65;46.92;;;3.40;99.90;;;;;;5015427;28;20042;-73
2022/03/25 01:50:25;;;;;;;186.93;43.90;;;3.40;99.90;;;;;;5014825;28;20053;-73
2022/03/25 01:52:52;;;;;;;218.10;45.38;;;3.40;99.90;;;;;;5015322;28;20050;-71
2022/03/25 01:55:26;;;;;;;187.73;46.13;;;3.40;99.90;;;;;;5015454;28;20409;-73
2022/03/25 01:57:57;;;;;;;161.48;43.60;;;3.40;99.90;;;;;;5015289;28;20498;-72
2022/03/25 02:00:24;;;;;;;137.75;45.63;;;3.40;99.90;;;;;;5015365;28;20133;-72
2022/03/25 02:02:50;;;;;;;163.60;45.47;;;4.60;99.90;;;;;;5014978;28;20058;-74
2022/03/25 02:05:18;;;;;;;147.02;43.60;;;3.40;99.90;;;;;;5014731;28;20050;-73
2022/03/25 02:07:44;;;;;;;121.45;43.42;;;3.40;99.90;;;;;;4997683;28;20052;-73
2022/03/25 02:10:10;;;;;;;118.63;42.67;;;3.50;99.90;;;;;;5015104;28;20049;-73
2022/03/25 02:12:35;;;;;;;138.15;42.45;;;3.50;99.90;;;;;;5015238;28;20038;-74
2022/03/25 02:15:03;;;;;;;113.93;44.00;;;3.50;99.90;;;;;;4997921;28;20453;-74
2022/03/25 02:17:29;;;;;;;146.75;45.05;;;3.50;99.90;;;;;;5014890;28;20073;-72
2022/03/25 02:19:55;;;;;;;158.55;42.33;;;4.00;99.90;;;;;;5014764;28;20060;-73
2022/03/25 02:22:22;;;;;;;148.63;43.70;;;3.50;99.90;;;;;;5014364;28;20033;-72
2022/03/25 02:24:49;;;;;;;135.27;42.70;;;3.50;99.90;;;;;;5014735;28;20061;-73
2022/03/25 02:27:16;;;;;;;156.55;43.58;;;4.40;99.90;;;;;;5014891;28;20152;-73
2022/03/25 02:29:43;;;;;;;165.75;42.00;;;3.60;99.90;;;;;;4997067;28;20490;-73
2022/03/25 02:32:10;;;;;;;242.27;46.75;;;3.50;99.90;;;;;;5014668;28;20099;-73
2022/03/25 02:34:37;;;;;;;163.20;43.65;;;4.10;99.90;;;;;;5014364;28;20445;-75
2022/03/25 02:37:04;;;;;;;180.93;44.20;;;3.50;99.90;;;;;;5014419;28;20060;-74
2022/03/25 02:39:30;;;;;;;194.93;45.20;;;3.50;99.90;;;;;;4997201;28;20057;-72
2022/03/25 02:41:56;;;;;;;153.25;42.85;;;3.50;99.90;;;;;;5014529;28;20176;-72
2022/03/25 02:44:22;;;;;;;171.32;43.00;;;3.50;99.90;;;;;;4997121;28;20401;-73
2022/03/25 02:46:47;;;;;;;151.90;43.53;;;3.50;99.90;;;;;;5014215;28;20046;-73
2022/03/25 02:49:14;;;;;;;203.25;44.20;;;3.50;99.90;;;;;;4996389;28;20052;-74
2022/03/25 02:51:39;;;;;;;288.65;49.70;;;3.50;99.90;;;;;;5025384;28;20026;-74
2022/03/25 02:54:05;;;;;;;198.10;43.80;;;3.50;99.90;;;;;;5029806;28;20084;-78
2022/03/25 02:56:32;;;;;;;176.23;42.92;;;3.50;99.90;;;;;;5023802;28;20493;-75
2022/03/25 02:58:59;;;;;;;187.05;44.13;;;3.50;99.90;;;;;;5022169;28;20060;-73
2022/03/25 03:01:25;;;;;;;201.48;43.60;;;3.40;99.90;;;;;;5016679;28;20104;-73
2022/03/25 03:03:51;;;;;;;146.40;41.03;;;3.50;99.90;;;;;;5014127;28;20058;-73
2022/03/25 03:06:17;;;;;;;184.98;43.03;;;3.50;99.90;;;;;;5014289;28;20502;-73
2022/03/25 03:08:42;;;;;;;237.43;45.88;;;3.40;99.90;;;;;;5013843;28;20121;-73
2022/03/25 03:11:08;;;;;;;190.70;42.22;;;3.40;99.90;;;;;;5014027;28;20077;-75
2022/03/25 03:13:34;;;;;;;302.13;50.25;;;3.40;99.90;;;;;;5014045;28;20518;-77
2022/03/25 03:16:00;;;;;;;186.23;42.70;;;3.30;99.90;;;;;;5013950;28;20116;-75
2022/03/25 03:18:26;;;;;;;161.95;41.05;;;3.30;99.90;;;;;;5013487;28;20053;-78
2022/03/25 03:20:52;;;;;;;197.82;39.72;;;3.30;99.90;;;;;;5013981;28;20100;-78
2022/03/25 03:23:18;;;;;;;315.85;44.47;;;3.30;99.90;;;;;;5013844;28;20048;-76
2022/03/25 03:25:44;;;;;;;192.13;40.42;;;3.20;99.90;;;;;;4995203;28;20058;-78
2022/03/25 03:28:09;;;;;;;170.07;39.58;;;3.20;99.90;;;;;;5013631;28;20453;-78
2022/03/25 03:30:35;;;;;;;166.05;37.05;;;3.10;99.90;;;;;;4995991;28;20054;-77
2022/03/25 03:33:04;;;;;;;158.70;38.05;;;3.10;99.90;;;;;;5013416;28;20498;-76
2022/03/25 03:35:34;;;;;;;175.68;40.40;;;4.20;99.90;;;;;;4995896;28;20053;-77
2022/03/25 03:38:01;;;;;;;213.50;38.92;;;3.10;99.90;;;;;;4996008;28;20050;-78
2022/03/25 03:40:26;;;;;;;203.95;36.95;;;3.10;99.90;;;;;;5013019;28;20053;-73
2022/03/25 03:42:52;;;;;;;124.65;36.50;;;3.00;99.90;;;;;;5013498;28;20038;-73
2022/03/25 03:45:18;;;;;;;171.27;37.08;;;3.00;99.90;;;;;;4995823;28;20383;-71
2022/03/25 03:47:45;;;;;;;162.05;37.90;;;3.00;99.90;;;;;;5013305;28;20121;-73
2022/03/25 03:50:16;;;;;;;163.23;35.80;;;2.90;99.90;;;;;;5013033;28;20137;-73
2022/03/25 03:52:42;;;;;;;182.75;38.08;;;2.90;99.90;;;;;;5013400;28;20038;-73
2022/03/25 03:55:10;;;;;;;169.60;36.20;;;2.90;99.90;;;;;;4995401;28;20136;-73
2022/03/25 03:57:36;;;;;;;185.35;37.30;;;2.90;99.90;;;;;;4994857;28;20042;-73
2022/03/25 04:00:09;;;;;;;212.02;35.67;;;2.90;99.90;;;;;;4995455;28;20568;-73
2022/03/25 04:02:34;;;;;;;204.98;35.83;;;2.80;99.90;;;;;;4975570;28;20059;-73
2022/03/25 04:05:00;;;;;;;150.77;34.88;;;2.80;99.90;;;;;;4993595;28;20057;-73
2022/03/25 04:07:26;;;;;;;163.18;33.40;;;2.70;99.90;;;;;;4993628;28;20541;-71
2022/03/25 04:09:51;;;;;;;169.18;33.47;;;3.60;99.90;;;;;;4991929;28;20062;-73
2022/03/25 04:12:17;;;;;;;173.73;35.58;;;3.10;99.90;;;;;;4993031;28;20050;-72
2022/03/25 04:14:43;;;;;;;181.93;35.90;;;2.60;99.90;;;;;;4993127;28;20050;-74
2022/03/25 04:17:08;;;;;;;153.73;34.58;;;2.60;99.90;;;;;;4993437;28;20129;-73
2022/03/25 04:19:34;;;;;;;192.73;35.85;;;2.60;99.90;;;;;;4992068;28;20121;-73
2022/03/25 04:21:59;;;;;;;194.63;36.60;;;2.90;99.90;;;;;;4992146;28;20050;-73
2022/03/25 04:24:25;;;;;;;183.27;36.85;;;2.60;99.90;;;;;;4992173;28;20406;-73
2022/03/25 04:26:51;;;;;;;201.32;38.45;;;2.50;99.90;;;;;;4992999;28;20046;-73
2022/03/25 04:29:18;;;;;;;258.40;38.45;;;2.50;99.90;;;;;;4975182;28;20081;-73
2022/03/25 04:31:44;;;;;;;186.13;37.53;;;2.40;99.90;;;;;;4991934;28;20098;-73
2022/03/25 04:34:10;;;;;;;165.07;37.05;;;2.40;99.90;;;;;;4992899;28;20061;-73
2022/03/25 04:36:36;;;;;;;162.48;34.70;;;2.60;99.90;;;;;;4992003;28;20042;-74
2022/03/25 04:39:01;;;;;;;124.63;33.58;;;2.40;99.90;;;;;;4993392;28;20054;-73
2022/03/25 04:41:27;;;;;;;156.10;33.50;;;2.40;99.90;;;;;;4994079;28;20495;-73
2022/03/25 04:43:53;;;;;;;266.90;37.65;;;2.30;99.90;;;;;;4993775;28;20120;-72
2022/03/25 04:46:18;;;;;;;82.40;30.75;;;2.20;99.90;;;;;;4994900;28;20049;-76
2022/03/25 04:48:44;;;;;;;73.40;28.33;;;2.20;99.90;;;;;;5001370;28;20042;-75
2022/03/25 04:51:10;;;;;;;83.55;29.08;;;2.20;99.90;;;;;;5002072;28;20069;-77
2022/03/25 04:53:36;;;;;;;107.90;30.33;;;2.20;99.90;;;;;;5005930;28;20050;-73
2022/03/25 04:56:02;;;;;;;95.25;31.20;;;2.10;99.90;;;;;;5002330;28;20104;-74
2022/03/25 04:58:28;;;;;;;81.88;30.15;;;2.10;99.90;;;;;;4998916;28;20046;-73
2022/03/25 05:00:54;;;;;;;67.35;27.60;;;2.10;99.90;;;;;;4995318;28;20038;-73
2022/03/25 05:03:20;;;;;;;95.72;28.13;;;2.10;99.90;;;;;;5004541;28;20062;-73
2022/03/25 05:05:47;;;;;;;66.85;27.33;;;2.10;99.90;;;;;;5012481;28;20386;-73
2022/03/25 05:08:12;;;;;;;62.38;22.70;;;2.10;99.90;;;;;;4995305;28;20050;-72
2022/03/25 05:10:38;;;;;;;57.97;25.25;;;2.00;99.90;;;;;;4998662;28;20056;-74
2022/03/25 05:13:04;;;;;;;59.97;24.35;;;1.90;99.90;;;;;;4998608;28;20108;-73
2022/03/25 05:15:30;;;;;;;84.03;26.40;;;1.90;99.90;;;;;;4998315;28;20081;-72
2022/03/25 05:17:56;;;;;;;72.03;26.63;;;1.90;99.90;;;;;;5016188;28;20045;-73
2022/03/25 05:20:22;;;;;;;70.90;25.80;;;1.90;99.90;;;;;;4998478;28;20401;-73
2022/03/25 05:22:50;;;;;;;56.22;22.48;;;1.80;99.90;;;;;;4982265;28;20053;-72
2022/03/25 05:25:17;;;;;;;59.92;25.35;;;1.70;99.90;;;;;;5016706;28;20049;-72
2022/03/25 05:27:50;;;;;;;59.70;25.90;;;1.70;99.90;;;;;;5018138;28;20391;-73
2022/03/25 05:30:24;;;;;;;66.82;32.97;;;1.70;99.90;;;;;;5015653;28;20056;-73
2022/03/25 05:32:50;;;;;;;62.50;25.05;;;1.60;99.90;;;;;;5016774;28;20168;-72
2022/03/25 05:35:17;;;;;;;47.90;24.40;;;1.60;99.90;;;;;;5015824;28;20049;-71
2022/03/25 05:37:43;;;;;;;60.28;25.05;;;1.60;99.90;;;;;;4998428;28;20513;-72
2022/03/25 05:40:10;;;;;;;55.25;24.13;;;1.60;99.90;;;;;;5015616;28;20092;-72
2022/03/25 05:42:36;;;;;;;50.38;23.30;;;1.50;99.90;;;;;;5015764;28;20045;-73
2022/03/25 05:45:04;;;;;;;43.95;22.55;;;2.10;99.90;;;;;;5015520;28;20042;-72
2022/03/25 05:47:30;;;;;;;44.17;21.85;;;1.50;99.90;;;;;;5015048;28;20058;-72
2022/03/25 05:49:56;;;;;;;50.83;20.95;;;1.50;99.90;;;;;;5015241;28;20053;-72
2022/03/25 05:52:21;;;;;;;45.35;21.20;;;1.40;99.90;;;;;;5015291;28;20045;-72
2022/03/25 05:54:47;;;;;;;38.58;19.95;;;1.40;99.90;;;;;;5015388;28;20041;-72
2022/03/25 05:57:13;;;;;;;44.58;20.50;;;1.80;99.90;;;;;;4997760;28;20041;-71
2022/03/25 05:59:38;;;;;;;37.65;18.35;;;1.40;99.90;;;;;;5015477;28;20034;-69
2022/03/25 06:02:04;;;;;;;40.88;18.85;;;1.40;99.90;;;;;;4997745;28;20389;-72
2022/03/25 06:04:29;;;;;;;35.40;19.13;;;1.40;99.90;;;;;;5014727;28;20054;-72
2022/03/25 06:06:55;;;;;;;34.97;18.95;;;1.40;99.90;;;;;;5015271;28;20084;-72
2022/03/25 06:09:21;;;;;;;35.42;19.52;;;1.40;99.90;;;;;;5015120;28;20478;-72
2022/03/25 06:11:46;;;;;;;26.10;12.32;;;1.40;99.90;;;;;;5015176;28;20060;-72
2022/03/25 06:14:12;;;;;;;23.13;10.93;;;1.40;99.90;;;;;;5015070;28;20052;-72
2022/03/25 06:16:39;;;;;;;18.10;9.35;;;1.50;99.90;;;;;;4997870;28;20088;-70
2022/03/25 06:19:05;;;;;;;21.58;10.20;;;1.50;99.90;;;;;;5014565;28;20046;-72
2022/03/25 06:21:31;;;;;;;20.38;8.63;;;1.40;99.90;;;;;;5014047;28;20045;-72
2022/03/25 06:23:57;;;;;;;30.15;12.32;;;1.50;99.90;;;;;;5015241;28;20111;-72
2022/03/25 06:26:22;;;;;;;24.73;11.27;;;1.60;99.90;;;;;;5015009;28;20395;-72
2022/03/25 06:28:48;;;;;;;17.20;7.95;;;1.70;99.90;;;;;;4996193;28;20053;-70
2022/03/25 06:31:13;;;;;;;20.55;7.47;;;1.90;99.90;;;;;;4997492;28;20453;-73
2022/03/25 06:33:40;;;;;;;19.45;8.63;;;2.00;99.90;;;;;;4996469;28;20050;-72
2022/03/25 06:36:13;;;;;;;18.58;8.73;;;2.10;99.90;;;;;;5014239;28;20046;-71
2022/03/25 06:38:43;;;;;;;20.63;7.80;;;2.10;99.90;;;;;;4996693;28;20069;-69
2022/03/25 06:41:09;;;;;;;18.90;8.82;;;2.30;99.90;;;;;;5010483;28;20049;-76
2022/03/25 06:43:36;;;;;;;26.80;10.60;;;2.40;99.90;;;;;;5018115;28;20034;-73
2022/03/25 06:46:02;;;;;;;24.20;9.80;;;2.50;99.90;;;;;;5015259;28;20134;-72
2022/03/25 06:48:28;;;;;;;30.17;10.82;;;2.50;99.90;;;;;;5002357;28;20088;-72
2022/03/25 06:50:54;;;;;;;25.40;9.65;;;2.60;99.90;;;;;;4997512;28;20069;-73
2022/03/25 06:53:20;;;;;;;20.70;9.55;;;2.60;99.90;;;;;;4996991;28;20128;-74
2022/03/25 06:55:46;;;;;;;20.55;8.27;;;2.70;99.90;;;;;;5013609;28;20050;-74
2022/03/25 06:58:12;;;;;;;23.75;7.88;;;2.80;99.90;;;;;;5013561;28;20034;-73
2022/03/25 07:00:38;;;;;;;16.88;7.72;;;2.80;99.90;;;;;;4995923;28;20133;-71
2022/03/25 07:03:04;;;;;;;17.25;8.13;;;3.00;99.90;;;;;;4995195;28;20049;-73
2022/03/25 07:05:31;;;;;;;18.00;8.15;;;3.00;99.90;;;;;;4995336;28;20046;-73
2022/03/25 07:07:58;;;;;;;21.15;8.32;;;3.10;99.90;;;;;;5012701;28;20114;-73
2022/03/25 07:10:26;;;;;;;20.33;7.28;;;3.20;99.90;;;;;;4996310;28;20049;-73
2022/03/25 07:12:53;;;;;;;19.88;8.43;;;3.30;99.90;;;;;;5013999;28;20045;-73
2022/03/25 07:15:20;;;;;;;22.95;9.75;;;3.40;99.90;;;;;;5014081;28;20096;-72
2022/03/25 07:17:46;;;;;;;22.55;9.23;;;3.50;99.90;;;;;;4964338;28;20054;-70
2022/03/25 07:20:15;;;;;;;25.98;10.57;;;3.60;99.90;;;;;;4996084;28;20132;-72
2022/03/25 07:22:45;;;;;;;23.67;9.80;;;3.80;99.90;;;;;;5013889;28;20077;-73
2022/03/25 07:25:12;;;;;;;27.02;10.88;;;4.00;99.90;;;;;;4996284;28;20056;-73
2022/03/25 07:27:38;;;;;;;25.00;9.57;;;4.10;99.90;;;;;;5014313;28;20042;-74
2022/03/25 07:30:05;;;;;;;35.45;11.65;;;4.30;99.90;;;;;;5013711;28;20053;-73
2022/03/25 07:32:31;;;;;;;23.85;10.75;;;4.50;99.90;;;;;;4995262;28;20120;-72
2022/03/25 07:34:57;;;;;;;21.30;10.48;;;4.60;99.90;;;;;;5013083;28;20050;-75
2022/03/25 07:37:23;;;;;;;25.20;11.23;;;4.80;99.90;;;;;;5013157;28;20045;-73
2022/03/25 07:39:49;;;;;;;29.90;12.55;;;5.00;99.90;;;;;;4996065;28;20058;-73
2022/03/25 07:42:14;;;;;;;31.70;12.07;;;5.10;99.90;;;;;;5013363;28;20037;-73
2022/03/25 07:44:40;;;;;;;26.42;10.50;;;5.60;99.90;;;;;;5013251;28;20085;-73
2022/03/25 07:47:07;;;;;;;32.92;12.82;;;5.50;99.90;;;;;;4995982;28;20050;-73
2022/03/25 07:49:34;;;;;;;26.13;11.55;;;5.70;99.90;;;;;;5013448;28;20073;-73
2022/03/25 07:52:01;;;;;;;27.27;11.32;;;5.80;99.90;;;;;;5012381;28;20053;-73
2022/03/25 07:54:27;;;;;;;32.08;12.13;;;5.90;99.90;;;;;;5011015;28;20042;-75
2022/03/25 07:56:57;;;;;;;31.58;11.88;;;6.10;99.90;;;;;;5011528;28;20405;-74
2022/03/25 07:59:23;;;;;;;31.20;11.80;;;6.20;99.90;;;;;;5015153;28;20054;-74
2022/03/25 08:01:48;;;;;;;31.77;11.77;;;6.40;99.90;;;;;;5017605;28;20038;-72
2022/03/25 08:04:14;;;;;;;40.22;13.32;;;6.60;99.90;;;;;;5022729;28;20045;-72
2022/03/25 08:06:41;;;;;;;31.80;11.73;;;7.00;99.90;;;;;;5032354;28;20071;-72
2022/03/25 08:09:06;;;;;;;31.67;11.45;;;6.80;99.90;;;;;;5030594;28;20048;-71
2022/03/25 08:11:32;;;;;;;27.05;10.55;;;6.90;99.90;;;;;;5014537;28;20042;-74
2022/03/25 08:13:58;;;;;;;30.55;12.43;;;7.30;99.90;;;;;;5031451;28;20075;-73
2022/03/25 08:16:23;;;;;;;31.42;12.32;;;7.20;99.90;;;;;;5013890;28;20084;-74
2022/03/25 08:18:49;;;;;;;28.45;10.90;;;7.40;99.90;;;;;;5013969;28;20493;-73
2022/03/25 08:21:15;;;;;;;35.60;11.25;;;7.50;99.90;;;;;;4997006;28;20064;-73
2022/03/25 08:29:09;;;;;;;29.67;11.93;;;8.00;99.90;;;;;;5024361;28;20042;-71
2022/03/25 08:31:35;;;;;;;23.75;10.60;;;8.60;99.90;;;;;;4994747;28;20494;-74
2022/03/25 08:34:03;;;;;;;23.52;10.88;;;8.10;99.90;;;;;;5018348;28;20046;-70
2022/03/25 08:36:29;;;;;;;28.02;11.23;;;8.20;99.90;;;;;;5030396;28;20045;-71
2022/03/25 08:38:55;;;;;;;27.92;10.57;;;8.60;99.90;;;;;;5035302;28;20034;-69
2022/03/25 08:41:21;;;;;;;32.03;11.50;;;8.80;99.90;;;;;;5023960;28;20107;-71
2022/03/25 08:43:49;;;;;;;28.75;11.68;;;8.70;99.90;;;;;;5033971;28;20038;-71
2022/03/25 08:46:15;;;;;;;23.95;9.25;;;8.70;99.90;;;;;;5024111;28;20045;-67
2022/03/25 08:48:41;;;;;;;22.70;10.48;;;8.80;99.90;;;;;;5024134;28;20038;-69
2022/03/25 08:51:07;;;;;;;30.15;10.68;;;9.00;99.90;;;;;;5022243;28;20046;-68
2022/03/25 08:53:33;;;;;;;24.50;9.25;;;9.10;99.90;;;;;;4998588;28;20052;-65
2022/03/25 08:55:59;;;;;;;23.58;9.02;;;9.30;99.90;;;;;;5014433;28;20046;-69
2022/03/25 08:58:25;;;;;;;25.90;10.68;;;9.30;99.90;;;;;;5015855;28;20042;-69
2022/03/25 09:00:50;;;;;;;22.13;8.90;;;9.90;99.90;;;;;;5015252;28;20283;-68
2022/03/25 09:03:16;;;;;;;27.65;8.40;;;9.70;99.90;;;;;;4981510;28;20525;-71
2022/03/25 09:05:42;;;;;;;29.77;9.95;;;9.80;99.90;;;;;;5015593;28;20064;-78
2022/03/25 09:08:07;;;;;;;37.28;15.40;;;10.10;99.90;;;;;;5015590;28;20041;-76
2022/03/25 09:10:33;;;;;;;31.73;14.43;;;10.00;99.90;;;;;;4997108;28;20546;-68
2022/03/25 09:12:59;;;;;;;35.17;15.05;;;10.10;99.90;;;;;;5014410;28;20478;-68
2022/03/25 09:15:25;;;;;;;33.88;14.48;;;10.10;99.90;;;;;;5014907;28;20099;-69
2022/03/25 09:17:51;;;;;;;30.23;13.90;;;10.20;99.90;;;;;;5014685;28;20048;-68
2022/03/25 09:20:17;;;;;;;34.58;14.75;;;10.30;99.90;;;;;;5014538;28;20049;-68
2022/03/25 09:22:43;;;;;;;34.60;14.40;;;10.50;99.90;;;;;;5015188;28;20514;-69
2022/03/25 09:25:10;;;;;;;31.58;13.57;;;10.60;99.90;;;;;;5014736;28;20559;-72
2022/03/25 09:27:36;;;;;;;30.40;13.63;;;10.70;99.90;;;;;;5015044;28;20137;-69
2022/03/25 09:30:04;;;;;;;31.58;15.05;;;10.90;99.90;;;;;;5014407;28;20041;-73
2022/03/25 09:32:30;;;;;;;32.80;16.77;;;10.90;99.90;;;;;;4997169;28;20046;-72
2022/03/25 09:35:08;;;;;;;34.30;17.15;;;11.00;99.90;;;;;;5014770;28;20061;-71
2022/03/25 09:37:44;;;;;;;35.38;14.40;;;11.20;99.90;;;;;;4980399;28;20054;-74
2022/03/25 09:40:21;;;;;;;34.40;12.82;;;11.10;99.90;;;;;;5014913;28;20161;-70
2022/03/25 09:42:48;;;;;;;29.25;12.35;;;11.20;99.90;;;;;;4980269;28;20558;-72
2022/03/25 09:45:17;;;;;;;29.00;12.90;;;11.20;99.90;;;;;;4996923;28;20497;-73
2022/03/25 09:47:45;;;;;;;30.00;14.35;;;11.20;99.90;;;;;;4996601;28;20073;-75
2022/03/25 09:50:13;;;;;;;34.40;15.50;;;11.30;99.90;;;;;;5013606;28;20038;-72
2022/03/25 09:52:41;;;;;;;30.05;14.13;;;11.30;99.90;;;;;;5014412;28;20049;-72
2022/03/25 09:55:07;;;;;;;33.60;16.58;;;11.40;99.90;;;;;;5013323;28;20064;-74
2022/03/25 09:57:33;;;;;;;37.15;18.85;;;11.40;99.90;;;;;;5014454;28;20132;-74
2022/03/25 09:59:59;;;;;;;35.33;17.40;;;11.60;99.90;;;;;;4995322;28;20053;-74
2022/03/25 10:02:25;;;;;;;35.10;18.38;;;11.70;99.90;;;;;;5013567;28;20115;-75
2022/03/25 10:04:52;;;;;;;35.33;18.17;;;11.80;99.90;;;;;;4995716;28;20490;-72
2022/03/25 10:07:21;;;;;;;29.95;16.92;;;12.00;99.90;;;;;;5013705;28;20060;-69
2022/03/25 10:10:08;;;;;;;36.05;18.90;;;12.00;99.90;;;;;;5014231;28;20497;-74
2022/03/25 10:12:35;;;;;;;31.63;18.15;;;12.10;99.90;;;;;;4995968;28;20045;-74
2022/03/25 10:15:23;;;;;;;31.15;16.73;;;12.20;99.90;;;;;;5014055;28;20624;-74
2022/03/25 10:18:01;;;;;;;26.90;13.38;;;12.20;99.90;;;;;;4996016;28;20045;-72
2022/03/25 10:20:38;;;;;;;28.00;14.15;;;12.30;99.90;;;;;;4979163;28;20493;-74
2022/03/25 10:23:15;;;;;;;31.65;15.57;;;12.40;99.90;;;;;;4996278;28;20050;-71
2022/03/25 10:25:53;;;;;;;29.73;15.18;;;12.80;99.90;;;;;;5016717;28;20117;-74
2022/03/25 10:28:29;;;;;;;31.50;14.40;;;12.60;99.90;;;;;;5031202;28;20109;-74
2022/03/25 10:30:59;;;;;;;29.08;13.43;;;12.70;99.90;;;;;;5023942;28;20042;-75
2022/03/25 10:33:36;;;;;;;30.98;13.68;;;12.70;99.90;;;;;;5018335;28;20486;-73
2022/03/25 10:36:08;;;;;;;30.70;14.13;;;12.90;99.90;;;;;;5014018;28;20057;-74
2022/03/25 10:38:43;;;;;;;26.98;12.60;;;13.00;99.90;;;;;;4996062;28;20096;-73
2022/03/25 10:41:11;;;;;;;27.73;12.95;;;13.10;99.90;;;;;;5013431;28;20045;-74
2022/03/25 10:43:47;;;;;;;30.23;13.52;;;13.20;99.90;;;;;;4995859;28;20125;-74
2022/03/25 10:46:33;;;;;;;34.95;16.50;;;13.30;99.90;;;;;;5012948;28;20104;-72
2022/03/25 10:48:59;;;;;;;27.63;13.82;;;13.30;99.90;;;;;;4995318;28;20064;-76
2022/03/25 10:51:25;;;;;;;30.00;14.13;;;13.40;99.90;;;;;;5013388;28;20042;-73
2022/03/25 10:54:08;;;;;;;31.10;13.95;;;13.60;99.90;;;;;;4979405;28;20452;-75
2022/03/25 10:56:45;;;;;;;28.58;13.35;;;13.70;99.90;;;;;;4996046;28;20050;-75
2022/03/25 10:59:36;;;;;;;30.33;12.88;;;13.90;99.90;;;;;;4995042;28;20100;-74
2022/03/25 11:02:07;;;;;;;26.42;12.52;;;14.10;99.90;;;;;;5013091;28;20054;-73
2022/03/25 11:04:34;;;;;;;27.17;13.23;;;14.10;99.90;;;;;;4994820;28;20137;-72
2022/03/25 11:07:03;;;;;;;26.55;14.02;;;14.20;98.40;;;;;;5013277;28;20061;-76
2022/03/25 11:09:30;;;;;;;31.05;14.95;;;14.20;98.00;;;;;;5012717;28;20140;-73
2022/03/25 11:11:59;;;;;;;26.40;13.02;;;14.30;98.00;;;;;;5012970;28;20100;-72
2022/03/25 11:14:26;;;;;;;29.27;13.30;;;14.30;98.00;;;;;;5012723;28;20140;-73
2022/03/25 11:16:55;;;;;;;26.95;11.82;;;14.40;97.20;;;;;;5012440;28;20042;-74
2022/03/25 11:19:22;;;;;;;27.20;11.35;;;14.50;94.60;;;;;;5012116;28;20409;-74
2022/03/25 11:21:49;;;;;;;26.58;13.88;;;14.50;95.00;;;;;;5012645;28;20053;-74
2022/03/25 11:24:36;;;;;;;28.05;13.77;;;14.60;94.60;;;;;;5012629;28;20050;-74
2022/03/25 11:27:19;;;;;;;26.98;12.55;;;14.70;92.80;;;;;;5012905;28;20096;-73
2022/03/25 11:29:51;;;;;;;28.27;13.50;;;14.70;92.70;;;;;;5012295;28;20042;-73
2022/03/25 11:32:17;;;;;;;24.52;13.05;;;14.70;93.20;;;;;;5012800;28;20045;-73
2022/03/25 11:34:44;;;;;;;24.67;12.80;;;14.70;91.80;;;;;;4977978;28;20049;-73
2022/03/25 11:37:26;;;;;;;25.42;12.20;;;14.70;91.90;;;;;;5012923;28;20045;-73
2022/03/25 11:40:22;;;;;;;24.80;11.82;;;14.90;92.60;;;;;;5012094;28;20042;-74
2022/03/25 11:42:51;;;;;;;30.38;13.25;;;15.00;92.60;;;;;;5012494;28;20050;-73
2022/03/25 11:45:22;;;;;;;24.38;12.48;;;15.00;90.50;;;;;;5012009;28;20568;-74
2022/03/25 11:48:00;;;;;;;25.73;12.13;;;15.00;90.80;;;;;;5012425;28;20099;-72
2022/03/25 11:50:35;;;;;;;22.10;9.80;;;15.10;91.00;;;;;;5021311;28;20116;-76
2022/03/25 11:53:12;;;;;;;23.50;10.80;;;15.10;88.60;;;;;;5020108;28;20133;-75
2022/03/25 11:55:53;;;;;;;25.42;12.18;;;15.10;89.20;;;;;;5028405;28;20057;-76
2022/03/25 11:58:19;;;;;;;28.60;11.85;;;15.20;89.40;;;;;;5013334;28;20064;-75
2022/03/25 12:00:48;;;;;;;25.35;10.93;;;15.20;90.00;;;;;;5031570;28;20056;-70
2022/03/25 12:03:15;;;;;;;20.70;10.18;;;15.30;88.30;;;;;;5030817;28;20041;-74
2022/03/25 12:06:02;;;;;;;23.40;9.73;;;15.30;87.00;;;;;;5030731;28;20401;-74
2022/03/25 12:08:31;;;;;;;18.73;9.20;;;15.40;86.90;;;;;;5030957;28;20115;-73
2022/03/25 12:10:59;;;;;;;21.40;9.43;;;15.50;85.20;;;;;;5013011;28;20045;-83
2022/03/25 12:13:51;;;;;;;18.67;8.85;;;15.60;83.60;;;;;;5031721;28;20394;-74
2022/03/25 12:16:52;;;;;;;18.98;10.05;;;15.60;82.60;;;;;;5022509;28;20151;-74
2022/03/25 12:19:27;;;;;;;18.80;7.88;;;15.60;79.30;;;;;;5045525;28;20470;-73
2022/03/25 12:21:57;;;;;;;21.92;8.52;;;15.60;81.50;;;;;;5038485;28;20131;-74
2022/03/25 12:24:25;;;;;;;20.65;8.63;;;15.60;80.20;;;;;;5043506;28;20050;-71
2022/03/25 12:27:02;;;;;;;20.83;8.85;;;15.50;79.20;;;;;;5016371;28;20056;-74
2022/03/25 12:29:29;;;;;;;28.23;9.88;;;15.60;80.20;;;;;;5031702;28;20485;-72
2022/03/25 12:31:55;;;;;;;18.75;9.18;;;15.70;76.80;;;;;;5014488;28;20582;-72
2022/03/25 12:34:40;;;;;;;22.00;9.85;;;15.70;77.30;;;;;;5031319;28;20077;-73
2022/03/25 12:37:11;;;;;;;24.30;11.15;;;15.70;77.50;;;;;;5014115;28;20045;-75
2022/03/25 12:39:37;;;;;;;22.15;10.70;;;15.60;75.70;;;;;;5031069;28;20037;-75